Time,TemperatureF,DewpointF,PressureIn,WindDirection,WindDirectionDegrees,WindSpeedMPH,WindSpeedGustMPH,Humidity,HourlyPrecipIn,Conditions,Clouds,dailyrainin,SoftwareType,DateUTC
2013-02-06 00:00:00,46.9,31.6,31.97,WNW,292,0.0,0.0,55,0.00,CLR,SKC,0.00,WeatherDisplay:10.37,2013-02-06 07:00:00,
2013-02-06 00:05:00,46.6,31.7,31.97,WNW,292,0.0,0.0,56,0.00,CLR,SKC,0.00,WeatherDisplay:10.37,2013-02-06 07:05:00,
2013-02-06 00:10:00,46.2,31.4,31.89,WNW,292,0.0,0.0,56,0.00,CLR,SKC,0.00,WeatherDisplay:10.37,2013-02-06 07:10:00,
2013-02-06 00:15:00,46.2,31.4,31.97,WNW,292,0.0,0.0,56,0.00,CLR,SKC,0.00,WeatherDisplay:10.37,2013-02-06 07:15:00,
2013-02-06 00:20:00,46.0,31.2,31.97,WNW,292,0.0,0.0,56,0.00,CLR,SKC,0.00,WeatherDisplay:10.37,2013-02-06 07:20:00,
2013-02-06 00:25:00,45.9,31.5,31.98,WNW,292,0.0,0.0,57,0.00,CLR,SKC,0.00,WeatherDisplay:10.37,2013-02-06 07:25:00,
2013-02-06 00:30:00,45.5,31.1,31.97,WNW,292,0.0,0.0,57,0.00,CLR,SKC,0.00,WeatherDisplay:10.37,2013-02-06 07:30:00,
2013-02-06 00:35:00,45.3,31.0,31.89,WNW,292,0.0,0.0,57,0.00,CLR,SKC,0.00,WeatherDisplay:10.37,2013-02-06 07:35:00,
2013-02-06 00:40:00,45.1,31.2,31.97,WNW,292,0.0,0.0,58,0.00,CLR,SKC,0.00,WeatherDisplay:10.37,2013-02-06 07:40:00,
2013-02-06 00:45:00,45.0,31.1,31.97,WNW,292,0.0,0.0,58,0.00,CLR,SKC,0.00,WeatherDisplay:10.37,2013-02-06 07:45:00,
2013-02-06 00:50:00,44.4,31.0,31.97,WNW,292,0.0,0.0,59,0.00,CLR,SKC,0.00,WeatherDisplay:10.37,2013-02-06 07:50:00,
2013-02-06 00:55:00,43.7,30.3,31.89,WNW,292,0.0,0.0,59,0.00,CLR,SKC,0.00,WeatherDisplay:10.37,2013-02-06 07:55:00,
2013-02-06 01:00:00,43.0,30.0,31.89,WNW,292,0.0,0.0,60,0.00,CLR,SKC,0.00,WeatherDisplay:10.37,2013-02-06 08:00:00,
2013-02-06 01:05:00,42.6,30.1,31.97,WNW,292,0.0,0.0,61,0.00,CLR,SKC,0.00,WeatherDisplay:10.37,2013-02-06 08:05:00,
2013-02-06 01:10:00,42.3,30.2,31.97,NW,315,6.5,6.5,62,0.00,CLR,SKC,0.00,WeatherDisplay:10.37,2013-02-06 08:10:00,
2013-02-06 01:15:00,42.4,31.5,31.89,NW,315,8.1,8.1,65,0.00,CLR,SKC,0.00,WeatherDisplay:10.37,2013-02-06 08:15:00,
2013-02-06 01:20:00,42.6,31.7,31.97,NW,315,8.1,8.1,65,0.00,CLR,SKC,0.00,WeatherDisplay:10.37,2013-02-06 08:20:00,
2013-02-06 01:25:00,42.4,31.5,31.97,NW,315,4.6,4.6,65,0.00,CLR,SKC,0.00,WeatherDisplay:10.37,2013-02-06 08:25:00,
2013-02-06 01:30:00,42.1,30.8,31.89,NW,315,2.3,2.3,64,0.00,CLR,SKC,0.00,WeatherDisplay:10.37,2013-02-06 08:30:00,
2013-02-06 01:35:00,41.5,30.6,31.89,NW,315,4.6,4.6,65,0.00,CLR,SKC,0.00,WeatherDisplay:10.37,2013-02-06 08:35:00,
2013-02-06 01:40:00,41.4,30.5,31.97,NW,315,0.0,0.0,65,0.00,CLR,SKC,0.00,WeatherDisplay:10.37,2013-02-06 08:40:00,
2013-02-06 01:45:00,41.4,30.8,31.97,NW,315,3.6,3.6,66,0.00,CLR,SKC,0.00,WeatherDisplay:10.37,2013-02-06 08:45:00,
2013-02-06 01:50:00,41.5,31.0,31.97,WNW,292,6.9,6.9,66,0.00,CLR,SKC,0.00,WeatherDisplay:10.37,2013-02-06 08:50:00,
2013-02-06 01:55:00,41.5,31.0,31.89,WNW,292,5.8,5.8,66,0.00,CLR,SKC,0.00,WeatherDisplay:10.37,2013-02-06 08:55:00,
2013-02-06 02:00:00,41.7,31.2,31.96,NW,315,6.9,6.9,66,0.00,CLR,SKC,0.00,WeatherDisplay:10.37,2013-02-06 09:00:00,
2013-02-06 02:05:00,41.7,31.2,31.96,WNW,292,5.8,5.8,66,0.00,CLR,SKC,0.00,WeatherDisplay:10.37,2013-02-06 09:05:00,
2013-02-06 02:10:00,41.5,31.0,31.89,WNW,292,6.9,6.9,66,0.00,CLR,SKC,0.00,WeatherDisplay:10.37,2013-02-06 09:10:00,
2013-02-06 02:15:00,41.5,31.0,31.89,NW,315,2.3,3.6,66,0.00,CLR,SKC,0.00,WeatherDisplay:10.37,2013-02-06 09:15:00,
2013-02-06 02:20:00,41.5,31.0,31.97,WNW,292,5.8,5.8,66,0.00,CLR,SKC,0.00,WeatherDisplay:10.37,2013-02-06 09:20:00,
2013-02-06 02:25:00,41.7,31.2,31.96,WNW,292,8.1,8.1,66,0.00,CLR,SKC,0.00,WeatherDisplay:10.37,2013-02-06 09:25:00,
2013-02-06 02:30:00,41.7,31.2,31.89,WNW,292,8.1,8.1,66,0.00,CLR,SKC,0.00,WeatherDisplay:10.37,2013-02-06 09:30:00,
2013-02-06 02:35:00,41.7,31.2,31.96,WNW,292,4.6,4.6,66,0.00,CLR,SKC,0.00,WeatherDisplay:10.37,2013-02-06 09:35:00,
2013-02-06 02:40:00,41.5,31.0,31.96,West,270,8.1,8.1,66,0.00,CLR,SKC,0.00,WeatherDisplay:10.37,2013-02-06 09:40:00,
2013-02-06 02:45:00,41.5,31.0,31.89,West,270,5.1,5.1,66,0.00,CLR,SKC,0.00,WeatherDisplay:10.37,2013-02-06 09:45:00,
2013-02-06 02:50:00,41.5,31.0,31.89,WNW,292,1.2,1.2,66,0.00,CLR,SKC,0.00,WeatherDisplay:10.37,2013-02-06 09:50:00,
2013-02-06 02:55:00,41.5,31.0,31.89,West,280,3.0,8.0,66,0.00,CLR,SKC,0.00,WeatherDisplay:10.37,2013-02-06 09:55:00,
2013-02-06 03:00:00,41.5,31.0,31.96,WNW,292,5.8,5.8,66,0.00,CLR,SKC,0.00,WeatherDisplay:10.37,2013-02-06 10:00:00,
2013-02-06 03:05:00,41.5,31.0,31.89,West,270,6.9,6.9,66,0.00,CLR,SKC,0.00,WeatherDisplay:10.37,2013-02-06 10:05:00,
2013-02-06 03:10:00,41.4,30.8,31.96,West,270,0.0,0.0,66,0.00,CLR,SKC,0.00,WeatherDisplay:10.37,2013-02-06 10:10:00,
2013-02-06 03:15:00,41.2,30.7,31.96,West,270,0.0,0.0,66,0.00,CLR,SKC,0.00,WeatherDisplay:10.37,2013-02-06 10:15:00,
2013-02-06 03:20:00,41.0,30.5,31.89,West,270,0.0,0.0,66,0.00,CLR,SKC,0.00,WeatherDisplay:10.37,2013-02-06 10:20:00,
2013-02-06 03:25:00,40.8,30.7,31.89,West,270,0.0,0.0,67,0.00,CLR,SKC,0.00,WeatherDisplay:10.37,2013-02-06 10:25:00,
2013-02-06 03:30:00,40.8,30.7,31.89,West,270,0.0,0.0,67,0.00,CLR,SKC,0.00,WeatherDisplay:10.37,2013-02-06 10:30:00,
2013-02-06 03:35:00,40.5,30.4,31.89,West,270,0.0,0.0,67,0.00,CLR,SKC,0.00,WeatherDisplay:10.37,2013-02-06 10:35:00,
2013-02-06 03:40:00,40.1,30.0,31.96,West,270,0.0,0.0,67,0.00,CLR,SKC,0.00,WeatherDisplay:10.37,2013-02-06 10:40:00,
2013-02-06 03:45:00,39.9,29.8,31.89,West,278,1.0,5.0,67,0.00,CLR,SKC,0.00,WeatherDisplay:10.37,2013-02-06 10:45:00,
2013-02-06 03:50:00,39.4,29.7,31.89,WNW,292,0.0,0.0,68,0.00,CLR,SKC,0.00,WeatherDisplay:10.37,2013-02-06 10:50:00,
2013-02-06 03:55:00,38.9,29.6,31.89,WNW,292,0.0,0.0,69,0.00,CLR,SKC,0.00,WeatherDisplay:10.37,2013-02-06 10:55:00,
2013-02-06 04:00:00,38.5,29.3,31.89,WNW,292,0.0,0.0,69,0.00,CLR,SKC,0.00,WeatherDisplay:10.37,2013-02-06 11:00:00,
2013-02-06 04:05:00,38.3,29.4,31.96,WNW,292,0.4,0.5,70,0.00,CLR,SKC,0.00,WeatherDisplay:10.37,2013-02-06 11:05:00,
2013-02-06 04:10:00,38.3,29.7,31.89,WNW,292,0.0,0.0,71,0.00,CLR,SKC,0.00,WeatherDisplay:10.37,2013-02-06 11:10:00,
2013-02-06 04:15:00,38.1,29.2,31.89,WNW,292,0.0,0.0,70,0.00,CLR,SKC,0.00,WeatherDisplay:10.37,2013-02-06 11:15:00,
2013-02-06 04:20:00,37.9,28.7,31.96,WNW,292,0.0,0.0,69,0.00,CLR,SKC,0.00,WeatherDisplay:10.37,2013-02-06 11:20:00,
2013-02-06 04:25:00,37.6,28.7,31.96,WNW,292,0.0,0.0,70,0.00,CLR,SKC,0.00,WeatherDisplay:10.37,2013-02-06 11:25:00,
2013-02-06 04:30:00,37.0,28.2,31.96,WNW,292,0.0,0.0,70,0.00,CLR,SKC,0.00,WeatherDisplay:10.37,2013-02-06 11:30:00,
2013-02-06 04:35:00,36.9,28.0,31.96,WNW,292,0.0,0.0,70,0.00,CLR,SKC,0.00,WeatherDisplay:10.37,2013-02-06 11:35:00,
2013-02-06 04:40:00,36.9,28.3,31.96,WNW,292,0.0,0.0,71,0.00,CLR,SKC,0.00,WeatherDisplay:10.37,2013-02-06 11:40:00,
2013-02-06 04:45:00,37.0,28.8,31.96,WNW,292,0.0,0.0,72,0.00,CLR,SKC,0.00,WeatherDisplay:10.37,2013-02-06 11:45:00,
2013-02-06 04:50:00,37.1,28.9,31.89,WNW,292,0.0,0.0,72,0.00,CLR,SKC,0.00,WeatherDisplay:10.37,2013-02-06 11:50:00,
2013-02-06 04:55:00,37.2,28.7,31.89,WNW,283,0.0,0.0,71,0.00,CLR,SKC,0.00,WeatherDisplay:10.37,2013-02-06 11:55:00,
2013-02-06 05:00:00,37.2,28.7,31.96,West,270,3.5,3.5,71,0.00,CLR,SKC,0.00,WeatherDisplay:10.37,2013-02-06 12:00:00,
2013-02-06 05:05:00,37.0,28.5,31.89,West,270,0.0,0.0,71,0.00,CLR,SKC,0.00,WeatherDisplay:10.37,2013-02-06 12:05:00,
2013-02-06 05:10:00,36.9,28.3,31.89,West,270,0.0,0.0,71,0.00,CLR,SKC,0.00,WeatherDisplay:10.37,2013-02-06 12:10:00,
2013-02-06 05:15:00,36.5,28.0,31.96,West,270,0.0,0.0,71,0.00,CLR,SKC,0.00,WeatherDisplay:10.37,2013-02-06 12:15:00,
2013-02-06 05:20:00,36.3,27.8,31.96,West,270,0.0,0.0,71,0.00,CLR,SKC,0.00,WeatherDisplay:10.37,2013-02-06 12:20:00,
2013-02-06 05:25:00,36.1,27.6,31.89,West,270,0.0,0.0,71,0.00,CLR,SKC,0.00,WeatherDisplay:10.37,2013-02-06 12:25:00,
2013-02-06 05:30:00,36.0,27.5,31.95,West,270,0.0,0.0,71,0.00,CLR,SKC,0.00,WeatherDisplay:10.37,2013-02-06 12:30:00,
2013-02-06 05:35:00,35.8,27.6,31.89,West,270,0.0,0.0,72,0.00,CLR,SKC,0.00,WeatherDisplay:10.37,2013-02-06 12:35:00,
2013-02-06 05:40:00,35.8,28.0,31.89,West,270,0.0,0.0,73,0.00,CLR,SKC,0.00,WeatherDisplay:10.37,2013-02-06 12:40:00,
2013-02-06 05:45:00,35.8,28.3,31.89,West,270,0.0,0.0,74,0.00,CLR,SKC,0.00,WeatherDisplay:10.37,2013-02-06 12:45:00,
2013-02-06 05:50:00,35.8,28.0,31.89,West,270,0.0,0.0,73,0.00,CLR,SKC,0.00,WeatherDisplay:10.37,2013-02-06 12:50:00,
2013-02-06 05:55:00,35.8,28.0,31.89,West,270,0.0,0.0,73,0.00,CLR,SKC,0.00,WeatherDisplay:10.37,2013-02-06 12:55:00,
2013-02-06 06:00:00,35.8,28.0,31.89,West,270,0.0,0.0,73,0.00,CLR,SKC,0.00,WeatherDisplay:10.37,2013-02-06 13:00:00,
2013-02-06 06:05:00,35.8,28.0,31.96,West,270,0.0,0.0,73,0.00,CLR,SKC,0.00,WeatherDisplay:10.37,2013-02-06 13:05:00,
2013-02-06 06:10:00,35.8,28.0,31.89,West,270,0.0,0.0,73,0.00,CLR,SKC,0.00,WeatherDisplay:10.37,2013-02-06 13:10:00,
2013-02-06 06:15:00,35.4,27.6,31.89,West,270,0.0,0.0,73,0.00,CLR,SKC,0.00,WeatherDisplay:10.37,2013-02-06 13:15:00,
2013-02-06 06:20:00,35.2,27.4,31.96,West,270,0.0,0.0,73,0.00,CLR,SKC,0.00,WeatherDisplay:10.37,2013-02-06 13:20:00,
2013-02-06 06:25:00,35.2,27.7,31.89,West,270,0.0,0.0,74,0.00,CLR,SKC,0.00,WeatherDisplay:10.37,2013-02-06 13:25:00,
2013-02-06 06:30:00,34.9,27.4,31.96,West,270,0.0,0.0,74,0.00,CLR,SKC,0.00,WeatherDisplay:10.37,2013-02-06 13:30:00,
2013-02-06 06:35:00,34.5,27.1,31.89,West,270,0.0,0.0,74,0.00,CLR,SKC,0.00,WeatherDisplay:10.37,2013-02-06 13:35:00,
2013-02-06 06:40:00,34.3,26.9,31.96,West,270,0.0,0.0,74,0.00,CLR,SKC,0.00,WeatherDisplay:10.37,2013-02-06 13:40:00,
2013-02-06 06:45:00,34.3,26.5,31.89,West,270,0.0,0.0,73,0.00,CLR,SKC,0.00,WeatherDisplay:10.37,2013-02-06 13:45:00,
2013-02-06 06:50:00,33.4,25.4,31.89,West,270,0.0,0.0,72,0.00,CLR,SKC,0.00,WeatherDisplay:10.37,2013-02-06 13:50:00,
2013-02-06 06:55:00,33.0,25.3,31.89,West,270,0.0,2.0,73,0.00,CLR,SKC,0.00,WeatherDisplay:10.37,2013-02-06 13:55:00,
2013-02-06 07:00:00,32.8,25.5,31.89,West,270,0.0,0.0,74,0.00,CLR,SKC,0.00,WeatherDisplay:10.37,2013-02-06 14:00:00,
2013-02-06 07:05:00,32.7,25.3,31.96,West,270,0.0,0.0,74,0.00,CLR,SKC,0.00,WeatherDisplay:10.37,2013-02-06 14:05:00,
2013-02-06 07:10:00,32.5,25.5,31.89,West,270,0.0,0.0,75,0.00,CLR,SKC,0.00,WeatherDisplay:10.37,2013-02-06 14:10:00,
2013-02-06 07:15:00,32.5,25.5,31.89,West,270,0.0,0.0,75,0.00,CLR,SKC,0.00,WeatherDisplay:10.37,2013-02-06 14:15:00,
2013-02-06 07:20:00,32.5,25.8,31.89,West,270,0.0,0.0,76,0.00,CLR,SKC,0.00,WeatherDisplay:10.37,2013-02-06 14:20:00,
2013-02-06 07:25:00,32.5,25.8,31.97,WNW,292,0.0,0.0,76,0.00,CLR,SKC,0.00,WeatherDisplay:10.37,2013-02-06 14:25:00,
2013-02-06 07:30:00,32.2,25.1,31.89,WNW,287,0.0,0.0,75,0.00,CLR,SKC,0.00,WeatherDisplay:10.37,2013-02-06 14:30:00,
2013-02-06 07:35:00,31.8,24.8,31.89,WNW,292,0.0,0.0,75,0.00,CLR,SKC,0.00,WeatherDisplay:10.37,2013-02-06 14:35:00,
2013-02-06 07:40:00,31.8,24.8,31.97,WNW,292,2.5,2.5,75,0.00,CLR,SKC,0.00,WeatherDisplay:10.37,2013-02-06 14:40:00,
2013-02-06 07:45:00,31.8,25.1,31.89,WNW,292,0.0,5.0,76,0.00,CLR,SKC,0.00,WeatherDisplay:10.37,2013-02-06 14:45:00,
2013-02-06 07:50:00,32.2,25.8,31.98,WNW,292,0.0,0.0,77,0.00,CLR,SKC,0.00,WeatherDisplay:10.37,2013-02-06 14:50:00,
2013-02-06 07:55:00,32.5,26.1,31.89,WNW,292,0.0,0.0,77,0.00,CLR,SKC,0.00,WeatherDisplay:10.37,2013-02-06 14:55:00,
2013-02-06 08:00:00,33.6,27.5,31.98,WNW,292,0.0,0.0,78,0.00,CLR,SKC,0.00,WeatherDisplay:10.37,2013-02-06 15:00:00,
2013-02-06 08:05:00,34.7,28.5,31.98,WNW,292,3.6,3.6,78,0.00,CLR,SKC,0.00,WeatherDisplay:10.37,2013-02-06 15:05:00,
2013-02-06 08:10:00,36.0,29.8,31.99,WNW,292,2.3,2.3,78,0.00,CLR,SKC,0.00,WeatherDisplay:10.37,2013-02-06 15:10:00,
2013-02-06 08:15:00,37.1,30.6,31.89,WNW,292,6.0,8.0,77,0.00,CLR,SKC,0.00,WeatherDisplay:10.37,2013-02-06 15:15:00,
2013-02-06 08:20:00,38.3,31.4,31.89,NW,315,5.8,5.8,76,0.00,CLR,SKC,0.00,WeatherDisplay:10.37,2013-02-06 15:20:00,
2013-02-06 08:25:00,39.4,32.1,31.98,WNW,292,8.1,8.1,75,0.00,CLR,SKC,0.00,WeatherDisplay:10.37,2013-02-06 15:25:00,
2013-02-06 08:30:00,40.1,32.1,31.99,NW,315,5.8,5.8,73,0.00,CLR,SKC,0.00,WeatherDisplay:10.37,2013-02-06 15:30:00,
2013-02-06 08:35:00,40.6,32.3,31.89,NW,314,3.0,7.0,72,0.00,CLR,SKC,0.00,WeatherDisplay:10.37,2013-02-06 15:35:00,
2013-02-06 08:40:00,40.8,32.1,31.89,NW,315,0.0,5.0,71,0.00,CLR,SKC,0.00,WeatherDisplay:10.37,2013-02-06 15:40:00,
2013-02-06 08:45:00,40.8,32.1,31.99,NW,315,0.0,0.0,71,0.00,CLR,SKC,0.00,WeatherDisplay:10.37,2013-02-06 15:45:00,
2013-02-06 08:50:00,41.2,32.5,31.99,NW,315,0.0,0.0,71,0.00,CLR,SKC,0.00,WeatherDisplay:10.37,2013-02-06 15:50:00,
2013-02-06 08:55:00,41.5,32.5,31.89,NW,315,0.0,0.0,70,0.00,CLR,SKC,0.00,WeatherDisplay:10.37,2013-02-06 15:55:00,
2013-02-06 09:00:00,42.1,33.0,31.98,NW,315,5.8,5.8,70,0.00,CLR,SKC,0.00,WeatherDisplay:10.37,2013-02-06 16:00:00,
2013-02-06 09:05:00,42.6,33.2,31.98,WNW,292,0.0,0.0,69,0.00,CLR,SKC,0.00,WeatherDisplay:10.37,2013-02-06 16:05:00,
2013-02-06 09:10:00,43.5,34.0,31.98,WNW,292,6.9,6.9,69,0.00,CLR,SKC,0.00,WeatherDisplay:10.37,2013-02-06 16:10:00,
2013-02-06 09:15:00,44.4,34.5,31.89,NW,315,3.5,3.5,68,0.00,CLR,SKC,0.00,WeatherDisplay:10.37,2013-02-06 16:15:00,
2013-02-06 09:20:00,45.5,35.2,31.98,NW,315,6.9,6.9,67,0.00,CLR,SKC,0.00,WeatherDisplay:10.37,2013-02-06 16:20:00,
2013-02-06 09:25:00,46.6,35.8,31.98,NNW,338,6.9,6.9,66,0.00,CLR,SKC,0.00,WeatherDisplay:10.37,2013-02-06 16:25:00,
2013-02-06 09:30:00,47.5,35.9,31.99,NNW,338,8.1,8.1,64,0.00,CLR,SKC,0.00,WeatherDisplay:10.37,2013-02-06 16:30:00,
2013-02-06 09:35:00,48.4,36.4,31.89,NNW,338,3.5,3.5,63,0.00,CLR,SKC,0.00,WeatherDisplay:10.37,2013-02-06 16:35:00,
2013-02-06 09:40:00,49.3,36.8,31.98,NNW,338,0.0,0.0,62,0.00,CLR,SKC,0.00,WeatherDisplay:10.37,2013-02-06 16:40:00,
2013-02-06 09:45:00,50.5,37.6,31.98,NNW,338,3.5,3.5,61,0.00,CLR,SKC,0.00,WeatherDisplay:10.37,2013-02-06 16:45:00,
2013-02-06 09:50:00,51.4,37.1,31.89,NW,315,0.0,0.0,58,0.00,CLR,SKC,0.00,WeatherDisplay:10.37,2013-02-06 16:50:00,
2013-02-06 09:55:00,52.2,37.4,31.89,NW,315,4.6,4.6,57,0.00,CLR,SKC,0.00,WeatherDisplay:10.37,2013-02-06 16:55:00,
2013-02-06 10:00:00,53.2,38.4,31.99,NW,315,0.0,0.0,57,0.00,CLR,SKC,0.00,WeatherDisplay:10.37,2013-02-06 17:00:00,
2013-02-06 10:05:00,54.7,39.3,31.99,NW,315,0.0,0.0,56,0.00,CLR,SKC,0.00,WeatherDisplay:10.37,2013-02-06 17:05:00,
2013-02-06 10:10:00,55.9,39.5,31.98,North,0,0.0,0.0,54,0.00,CLR,SKC,0.00,WeatherDisplay:10.37,2013-02-06 17:10:00,
2013-02-06 10:15:00,57.0,39.1,31.89,WNW,292,6.9,6.9,51,0.00,CLR,SKC,0.00,WeatherDisplay:10.37,2013-02-06 17:15:00,
2013-02-06 10:20:00,57.9,39.4,31.99,West,270,0.0,0.0,50,0.00,CLR,SKC,0.00,WeatherDisplay:10.37,2013-02-06 17:20:00,
2013-02-06 10:25:00,58.8,39.6,31.89,WNW,292,1.0,7.0,49,0.00,CLR,SKC,0.00,WeatherDisplay:10.37,2013-02-06 17:25:00,
2013-02-06 10:30:00,59.4,39.1,31.89,NW,315,0.0,0.0,47,0.00,CLR,SKC,0.00,WeatherDisplay:10.37,2013-02-06 17:30:00,
2013-02-06 10:35:00,59.7,39.4,31.89,NW,315,0.0,0.0,47,0.00,CLR,SKC,0.00,WeatherDisplay:10.37,2013-02-06 17:35:00,
2013-02-06 10:40:00,60.8,39.9,31.99,NW,315,0.0,0.0,46,0.00,CLR,SKC,0.00,WeatherDisplay:10.37,2013-02-06 17:40:00,
2013-02-06 10:45:00,62.2,40.6,31.99,SW,225,0.0,0.0,45,0.00,CLR,SKC,0.00,WeatherDisplay:10.37,2013-02-06 17:45:00,
2013-02-06 10:50:00,63.7,40.8,31.99,South,180,0.0,0.0,43,0.00,CLR,SKC,0.00,WeatherDisplay:10.37,2013-02-06 17:50:00,
2013-02-06 10:55:00,64.6,41.0,31.89,SSE,158,0.0,0.0,42,0.00,CLR,SKC,0.00,WeatherDisplay:10.37,2013-02-06 17:55:00,
2013-02-06 11:00:00,65.8,41.5,31.98,ESE,112,6.9,6.9,41,0.00,CLR,SKC,0.00,WeatherDisplay:10.37,2013-02-06 18:00:00,
2013-02-06 11:05:00,66.9,41.8,31.98,SE,135,0.0,0.0,40,0.00,CLR,SKC,0.00,WeatherDisplay:10.37,2013-02-06 18:05:00,
2013-02-06 11:10:00,67.8,40.6,31.89,ENE,68,0.0,0.0,37,0.00,CLR,SKC,0.00,WeatherDisplay:10.37,2013-02-06 18:10:00,
2013-02-06 11:15:00,68.4,41.8,31.98,South,180,0.0,0.0,38,0.00,CLR,SKC,0.00,WeatherDisplay:10.37,2013-02-06 18:15:00,
2013-02-06 11:20:00,69.4,42.0,31.98,SE,135,0.0,0.0,37,0.00,CLR,SKC,0.00,WeatherDisplay:10.37,2013-02-06 18:20:00,
2013-02-06 11:25:00,70.5,42.3,31.98,SSE,158,0.0,0.0,36,0.00,CLR,SKC,0.00,WeatherDisplay:10.37,2013-02-06 18:25:00,
2013-02-06 11:30:00,71.2,42.2,31.97,SSE,158,0.0,0.0,35,0.00,CLR,SKC,0.00,WeatherDisplay:10.37,2013-02-06 18:30:00,
2013-02-06 11:35:00,71.6,41.7,31.89,SSE,158,0.0,0.0,34,0.00,CLR,SKC,0.00,WeatherDisplay:10.37,2013-02-06 18:35:00,
2013-02-06 11:40:00,72.3,41.6,31.97,South,180,0.0,0.0,33,0.00,CLR,SKC,0.00,WeatherDisplay:10.37,2013-02-06 18:40:00,
2013-02-06 11:45:00,72.9,41.3,31.98,WSW,248,0.0,0.0,32,0.00,CLR,SKC,0.00,WeatherDisplay:10.37,2013-02-06 18:45:00,
2013-02-06 11:50:00,72.9,41.3,31.89,SW,225,0.0,0.0,32,0.00,CLR,SKC,0.00,WeatherDisplay:10.37,2013-02-06 18:50:00,
2013-02-06 11:55:00,73.0,41.4,31.97,SSW,202,2.3,2.3,32,0.00,CLR,SKC,0.00,WeatherDisplay:10.37,2013-02-06 18:55:00,
2013-02-06 12:00:00,73.2,41.6,31.89,SSW,210,0.0,6.0,32,0.00,CLR,SKC,0.00,WeatherDisplay:10.37,2013-02-06 19:00:00,
2013-02-06 12:05:00,73.2,41.6,31.96,South,180,6.9,6.9,32,0.00,CLR,SKC,0.00,WeatherDisplay:10.37,2013-02-06 19:05:00,
2013-02-06 12:10:00,73.9,41.4,31.89,SSE,162,0.0,2.0,31,0.00,CLR,SKC,0.00,WeatherDisplay:10.37,2013-02-06 19:10:00,
2013-02-06 12:15:00,75.0,42.3,31.95,SSE,158,0.0,0.0,31,0.00,CLR,SKC,0.00,WeatherDisplay:10.37,2013-02-06 19:15:00,
2013-02-06 12:20:00,75.7,42.1,31.89,SSE,156,3.0,9.0,30,0.00,CLR,SKC,0.00,WeatherDisplay:10.37,2013-02-06 19:20:00,
2013-02-06 12:25:00,75.9,41.4,31.95,SE,135,0.0,0.0,29,0.00,CLR,SKC,0.00,WeatherDisplay:10.37,2013-02-06 19:25:00,
2013-02-06 12:30:00,76.6,42.0,31.89,SE,127,1.0,10.0,29,0.00,CLR,SKC,0.00,WeatherDisplay:10.37,2013-02-06 19:30:00,
2013-02-06 12:35:00,77.7,42.0,31.95,ESE,112,11.5,11.5,28,0.00,CLR,SKC,0.00,WeatherDisplay:10.37,2013-02-06 19:35:00,
2013-02-06 12:40:00,78.1,42.3,31.89,ESE,119,5.0,14.0,28,0.00,CLR,SKC,0.00,WeatherDisplay:10.37,2013-02-06 19:40:00,
2013-02-06 12:45:00,78.1,42.3,31.89,ESE,122,1.0,8.0,28,0.00,CLR,SKC,0.00,WeatherDisplay:10.37,2013-02-06 19:45:00,
2013-02-06 12:50:00,78.0,41.3,31.89,ESE,103,7.0,13.0,27,0.00,CLR,SKC,0.00,WeatherDisplay:10.37,2013-02-06 19:50:00,
2013-02-06 12:55:00,77.5,40.9,31.94,ESE,112,0.0,0.0,27,0.00,CLR,SKC,0.00,WeatherDisplay:10.37,2013-02-06 19:55:00,
2013-02-06 13:00:00,77.7,41.1,31.93,NE,45,0.0,0.0,27,0.00,CLR,SKC,0.00,WeatherDisplay:10.37,2013-02-06 20:00:00,
2013-02-06 13:05:00,78.3,41.5,31.93,WNW,292,0.0,0.0,27,0.00,CLR,SKC,0.00,WeatherDisplay:10.37,2013-02-06 20:05:00,
2013-02-06 13:10:00,78.9,41.1,31.89,NW,323,5.0,14.0,26,0.00,CLR,SKC,0.00,WeatherDisplay:10.37,2013-02-06 20:10:00,
2013-02-06 13:15:00,77.5,38.9,31.93,ENE,68,8.1,8.1,25,0.00,CLR,SKC,0.00,WeatherDisplay:10.37,2013-02-06 20:15:00,
2013-02-06 13:20:00,75.8,39.4,31.89,ENE,77,6.0,12.0,27,0.00,CLR,SKC,0.00,WeatherDisplay:10.37,2013-02-06 20:20:00,
2013-02-06 13:25:00,73.6,37.5,31.93,East,90,9.2,9.2,27,0.00,CLR,SKC,0.00,WeatherDisplay:10.37,2013-02-06 20:25:00,
2013-02-06 13:30:00,73.2,38.1,31.89,East,94,2.0,11.0,28,0.00,CLR,SKC,0.00,WeatherDisplay:10.37,2013-02-06 20:30:00,
2013-02-06 13:35:00,73.2,38.1,31.92,ESE,112,13.8,13.8,28,0.00,CLR,SKC,0.00,WeatherDisplay:10.37,2013-02-06 20:35:00,
2013-02-06 13:40:00,73.1,38.1,31.89,ESE,111,3.0,14.0,28,0.00,CLR,SKC,0.00,WeatherDisplay:10.37,2013-02-06 20:40:00,
2013-02-06 13:45:00,72.9,37.8,31.92,ENE,68,0.0,0.0,28,0.00,CLR,SKC,0.00,WeatherDisplay:10.37,2013-02-06 20:45:00,
2013-02-06 13:50:00,73.2,39.0,31.92,East,90,8.1,8.1,29,0.00,CLR,SKC,0.00,WeatherDisplay:10.37,2013-02-06 20:50:00,
2013-02-06 13:55:00,73.6,39.3,31.89,ESE,105,12.0,22.0,29,0.00,CLR,SKC,0.00,WeatherDisplay:10.37,2013-02-06 20:55:00,
2013-02-06 14:00:00,73.4,39.2,31.89,ESE,103,24.0,29.0,29,0.00,,SKC,0.00,WeatherDisplay:10.37,2013-02-06 21:00:00,
2013-02-06 14:05:00,71.6,38.5,31.92,SE,135,17.3,17.3,30,0.00,CLR,SKC,0.00,WeatherDisplay:10.37,2013-02-06 21:05:00,
2013-02-06 14:10:00,70.2,38.1,31.92,ESE,112,17.3,17.3,31,0.00,CLR,SKC,0.00,WeatherDisplay:10.37,2013-02-06 21:10:00,
2013-02-06 14:15:00,69.3,38.1,31.92,East,90,24.2,24.2,32,0.00,CLR,SKC,0.00,WeatherDisplay:10.37,2013-02-06 21:15:00,
2013-02-06 14:20:00,69.3,38.1,31.92,ESE,112,23.0,23.0,32,0.00,CLR,SKC,0.00,WeatherDisplay:10.37,2013-02-06 21:20:00,
2013-02-06 14:25:00,70.3,38.3,31.92,ESE,112,18.4,18.4,31,0.00,,SKC,0.00,WeatherDisplay:10.37,2013-02-06 21:25:00,
2013-02-06 14:30:00,70.2,37.3,31.91,ESE,112,22.1,22.1,30,0.00,CLR,SKC,0.00,WeatherDisplay:10.37,2013-02-06 21:30:00,
2013-02-06 14:35:00,69.4,37.5,31.89,ESE,112,23.0,23.0,31,0.00,CLR,SKC,0.00,WeatherDisplay:10.37,2013-02-06 21:35:00,
2013-02-06 14:40:00,68.7,36.8,31.92,East,90,24.2,24.2,31,0.00,,SKC,0.00,WeatherDisplay:10.37,2013-02-06 21:40:00,
2013-02-06 14:45:00,68.8,36.9,31.89,ESE,106,16.0,20.0,31,0.00,CLR,SKC,0.00,WeatherDisplay:10.37,2013-02-06 21:45:00,
2013-02-06 14:50:00,69.1,37.2,31.89,ESE,104,24.0,33.0,31,0.00,,SKC,0.00,WeatherDisplay:10.37,2013-02-06 21:50:00,
2013-02-06 14:55:00,68.8,36.9,31.89,East,97,16.0,21.0,31,0.00,CLR,SKC,0.00,WeatherDisplay:10.37,2013-02-06 21:55:00,
2013-02-06 15:00:00,69.6,36.7,31.89,East,99,24.0,29.0,30,0.00,,SKC,0.00,WeatherDisplay:10.37,2013-02-06 22:00:00,
2013-02-06 15:05:00,69.6,36.8,31.92,ESE,112,20.7,20.7,30,0.00,CLR,SKC,0.00,WeatherDisplay:10.37,2013-02-06 22:05:00,
2013-02-06 15:10:00,69.6,36.8,31.89,ENE,68,23.0,23.0,30,0.00,CLR,SKC,0.00,WeatherDisplay:10.37,2013-02-06 22:10:00,
2013-02-06 15:15:00,69.4,36.6,31.89,East,90,20.8,20.8,30,0.00,CLR,SKC,0.00,WeatherDisplay:10.37,2013-02-06 22:15:00,
2013-02-06 15:20:00,69.4,36.6,31.92,ESE,112,18.4,18.4,30,0.00,CLR,SKC,0.00,WeatherDisplay:10.37,2013-02-06 22:20:00,
2013-02-06 15:25:00,69.4,36.6,31.89,ESE,104,20.0,23.0,30,0.00,CLR,SKC,0.00,WeatherDisplay:10.37,2013-02-06 22:25:00,
2013-02-06 15:30:00,68.7,36.8,31.89,East,101,14.0,22.0,31,0.00,CLR,SKC,0.00,WeatherDisplay:10.37,2013-02-06 22:30:00,
2013-02-06 15:35:00,68.7,36.8,31.89,ESE,108,17.0,21.0,31,0.00,CLR,SKC,0.00,WeatherDisplay:10.37,2013-02-06 22:35:00,
2013-02-06 15:40:00,68.7,37.7,31.89,East,100,15.0,25.0,32,0.00,CLR,SKC,0.00,WeatherDisplay:10.37,2013-02-06 22:40:00,
2013-02-06 15:45:00,68.4,37.3,31.89,East,95,23.0,32.0,32,0.00,,SKC,0.00,WeatherDisplay:10.37,2013-02-06 22:45:00,
2013-02-06 15:50:00,68.2,37.2,31.92,East,90,28.8,28.8,32,0.00,,SKC,0.00,WeatherDisplay:10.37,2013-02-06 22:50:00,
2013-02-06 15:55:00,67.6,36.7,31.89,East,97,23.0,29.0,32,0.00,CLR,SKC,0.00,WeatherDisplay:10.37,2013-02-06 22:55:00,
2013-02-06 16:00:00,67.6,36.7,31.92,East,90,24.2,24.2,32,0.00,CLR,SKC,0.00,WeatherDisplay:10.37,2013-02-06 23:00:00,
2013-02-06 16:05:00,67.8,36.1,31.89,ESE,112,27.6,27.6,31,0.00,,SKC,0.00,WeatherDisplay:10.37,2013-02-06 23:05:00,
2013-02-06 16:10:00,67.3,36.4,31.92,ESE,112,32.2,32.2,32,0.00,,SKC,0.00,WeatherDisplay:10.37,2013-02-06 23:10:00,
2013-02-06 16:15:00,67.6,36.7,31.89,ESE,104,18.0,30.0,32,0.00,,SKC,0.00,WeatherDisplay:10.37,2013-02-06 23:15:00,
2013-02-06 16:20:00,67.8,37.6,31.92,ESE,112,18.4,18.4,33,0.00,CLR,SKC,0.00,WeatherDisplay:10.37,2013-02-06 23:20:00,
2013-02-06 16:25:00,67.9,36.9,31.89,ESE,102,20.0,25.0,32,0.00,CLR,SKC,0.00,WeatherDisplay:10.37,2013-02-06 23:25:00,
2013-02-06 16:30:00,68.4,38.1,31.89,East,90,24.2,24.2,33,0.00,CLR,SKC,0.00,WeatherDisplay:10.37,2013-02-06 23:30:00,
2013-02-06 16:35:00,68.2,37.2,31.93,East,90,26.5,26.5,32,0.00,CLR,SKC,0.00,WeatherDisplay:10.37,2013-02-06 23:35:00,
2013-02-06 16:40:00,67.5,37.3,31.92,ESE,112,25.3,25.3,33,0.00,CLR,SKC,0.00,WeatherDisplay:10.37,2013-02-06 23:40:00,
2013-02-06 16:45:00,67.2,37.1,31.89,ESE,114,17.0,20.0,33,0.00,CLR,SKC,0.00,WeatherDisplay:10.37,2013-02-06 23:45:00,
2013-02-06 16:50:00,66.4,35.6,31.89,East,90,18.4,18.4,32,0.00,CLR,SKC,0.00,WeatherDisplay:10.37,2013-02-06 23:50:00,
2013-02-06 16:55:00,66.0,35.3,31.89,East,89,17.0,23.0,32,0.00,CLR,SKC,0.00,WeatherDisplay:10.37,2013-02-06 23:55:00,
2013-02-06 17:00:00,66.0,35.3,31.89,East,95,20.0,26.0,32,0.00,CLR,SKC,0.00,WeatherDisplay:10.37,2013-02-07 00:00:00,
2013-02-06 17:05:00,65.8,35.1,31.89,East,85,17.0,20.0,32,0.00,CLR,SKC,0.00,WeatherDisplay:10.37,2013-02-07 00:05:00,
2013-02-06 17:10:00,66.0,35.3,31.94,East,90,19.6,19.6,32,0.00,CLR,SKC,0.00,WeatherDisplay:10.37,2013-02-07 00:10:00,
2013-02-06 17:15:00,66.0,35.3,31.89,East,91,17.0,20.0,32,0.00,CLR,SKC,0.00,WeatherDisplay:10.37,2013-02-07 00:15:00,
2013-02-06 17:20:00,66.0,34.5,31.94,East,90,26.5,26.5,31,0.00,,SKC,0.00,WeatherDisplay:10.37,2013-02-07 00:20:00,
2013-02-06 17:25:00,65.8,34.3,31.89,East,92,18.0,26.0,31,0.00,CLR,SKC,0.00,WeatherDisplay:10.37,2013-02-07 00:25:00,
2013-02-06 17:30:00,65.7,34.2,31.94,ESE,112,20.7,20.7,31,0.00,CLR,SKC,0.00,WeatherDisplay:10.37,2013-02-07 00:30:00,
2013-02-06 17:35:00,65.5,34.0,31.89,East,95,15.0,21.0,31,0.00,CLR,SKC,0.00,WeatherDisplay:10.37,2013-02-07 00:35:00,
2013-02-06 17:40:00,65.3,33.9,31.94,East,90,16.3,16.8,31,0.00,CLR,SKC,0.00,WeatherDisplay:10.37,2013-02-07 00:40:00,
2013-02-06 17:45:00,64.8,33.4,31.89,East,90,20.7,20.7,31,0.00,CLR,SKC,0.00,WeatherDisplay:10.37,2013-02-07 00:45:00,
2013-02-06 17:50:00,64.2,33.7,31.94,East,90,18.4,18.4,32,0.00,CLR,SKC,0.00,WeatherDisplay:10.37,2013-02-07 00:50:00,
2013-02-06 17:55:00,63.7,33.2,31.89,ENE,68,15.0,15.0,32,0.00,CLR,SKC,0.00,WeatherDisplay:10.37,2013-02-07 00:55:00,
2013-02-06 18:00:00,63.0,33.4,31.95,East,90,11.5,11.5,33,0.00,CLR,SKC,0.00,WeatherDisplay:10.37,2013-02-07 01:00:00,
2013-02-06 18:05:00,62.4,32.9,31.89,East,85,12.0,14.0,33,0.00,CLR,SKC,0.00,WeatherDisplay:10.37,2013-02-07 01:05:00,
2013-02-06 18:10:00,61.9,32.4,31.95,East,90,11.5,11.5,33,0.00,CLR,SKC,0.00,WeatherDisplay:10.37,2013-02-07 01:10:00,
2013-02-06 18:15:00,61.5,32.9,31.89,East,90,10.0,12.0,34,0.00,CLR,SKC,0.00,WeatherDisplay:10.37,2013-02-07 01:15:00,
2013-02-06 18:20:00,60.8,32.2,31.96,East,90,12.7,12.7,34,0.00,CLR,SKC,0.00,WeatherDisplay:10.37,2013-02-07 01:20:00,
2013-02-06 18:25:00,60.4,32.6,31.89,East,92,13.0,15.0,35,0.00,CLR,SKC,0.00,WeatherDisplay:10.37,2013-02-07 01:25:00,
2013-02-06 18:30:00,59.9,32.9,31.96,East,90,16.1,16.1,36,0.00,CLR,SKC,0.00,WeatherDisplay:10.37,2013-02-07 01:30:00,
2013-02-06 18:35:00,59.5,32.5,31.96,East,90,11.5,11.5,36,0.00,CLR,SKC,0.00,WeatherDisplay:10.37,2013-02-07 01:35:00,
2013-02-06 18:40:00,58.8,32.6,31.96,East,90,11.5,11.5,37,0.00,CLR,SKC,0.00,WeatherDisplay:10.37,2013-02-07 01:40:00,
2013-02-06 18:45:00,58.8,32.6,31.97,ENE,68,10.4,10.4,37,0.00,CLR,SKC,0.00,WeatherDisplay:10.37,2013-02-07 01:45:00,
2013-02-06 18:50:00,58.6,33.1,31.89,East,90,10.4,10.4,38,0.00,CLR,SKC,0.00,WeatherDisplay:10.37,2013-02-07 01:50:00,
2013-02-06 18:55:00,58.3,32.8,31.97,ENE,68,10.4,10.4,38,0.00,CLR,SKC,0.00,WeatherDisplay:10.37,2013-02-07 01:55:00,
2013-02-06 19:00:00,57.9,32.4,31.97,ENE,68,9.6,9.6,38,0.00,CLR,SKC,0.00,WeatherDisplay:10.37,2013-02-07 02:00:00,
2013-02-06 19:05:00,57.6,32.8,31.89,ENE,68,11.5,11.5,39,0.00,CLR,SKC,0.00,WeatherDisplay:10.37,2013-02-07 02:05:00,
2013-02-06 19:10:00,57.2,32.4,31.89,ENE,68,10.4,10.4,39,0.00,CLR,SKC,0.00,WeatherDisplay:10.37,2013-02-07 02:10:00,
2013-02-06 19:15:00,56.8,32.8,31.98,ENE,68,11.5,11.5,40,0.00,CLR,SKC,0.00,WeatherDisplay:10.37,2013-02-07 02:15:00,
2013-02-06 19:20:00,56.5,32.4,31.98,ENE,68,13.0,13.0,40,0.00,CLR,SKC,0.00,WeatherDisplay:10.37,2013-02-07 02:20:00,
2013-02-06 19:25:00,56.3,32.9,31.89,ENE,68,12.7,12.7,41,0.00,CLR,SKC,0.00,WeatherDisplay:10.37,2013-02-07 02:25:00,
2013-02-06 19:30:00,55.9,32.6,31.98,ENE,68,12.7,12.7,41,0.00,CLR,SKC,0.00,WeatherDisplay:10.37,2013-02-07 02:30:00,
2013-02-06 19:35:00,55.8,33.0,31.98,ENE,68,16.1,16.1,42,0.00,CLR,SKC,0.00,WeatherDisplay:10.37,2013-02-07 02:35:00,
2013-02-06 19:40:00,55.6,32.8,31.98,ENE,68,16.1,16.1,42,0.00,CLR,SKC,0.00,WeatherDisplay:10.37,2013-02-07 02:40:00,
2013-02-06 19:45:00,55.6,33.4,31.99,ENE,68,16.1,16.1,43,0.00,CLR,SKC,0.00,WeatherDisplay:10.37,2013-02-07 02:45:00,
2013-02-06 19:50:00,55.4,33.3,31.99,East,90,16.1,16.1,43,0.00,CLR,SKC,0.00,WeatherDisplay:10.37,2013-02-07 02:50:00,
2013-02-06 19:55:00,55.6,33.4,31.99,ENE,68,17.3,17.3,43,0.00,CLR,SKC,0.00,WeatherDisplay:10.37,2013-02-07 02:55:00,
2013-02-06 20:00:00,55.4,33.3,31.99,ENE,68,15.4,15.4,43,0.00,CLR,SKC,0.00,WeatherDisplay:10.37,2013-02-07 03:00:00,
2013-02-06 20:05:00,55.2,33.7,31.89,ENE,68,16.1,16.1,44,0.00,CLR,SKC,0.00,WeatherDisplay:10.37,2013-02-07 03:05:00,
2013-02-06 20:10:00,55.2,33.7,32.00,ENE,68,16.1,16.1,44,0.00,CLR,SKC,0.00,WeatherDisplay:10.37,2013-02-07 03:10:00,
2013-02-06 20:15:00,55.0,33.5,32.00,ENE,68,17.3,17.3,44,0.00,CLR,SKC,0.00,WeatherDisplay:10.37,2013-02-07 03:15:00,
2013-02-06 20:20:00,54.9,33.3,31.89,ENE,68,18.5,18.5,44,0.00,CLR,SKC,0.00,WeatherDisplay:10.37,2013-02-07 03:20:00,
2013-02-06 20:25:00,54.7,33.2,31.89,East,90,17.3,17.3,44,0.00,CLR,SKC,0.00,WeatherDisplay:10.37,2013-02-07 03:25:00,
2013-02-06 20:30:00,54.5,33.6,32.00,ENE,68,16.1,16.1,45,0.00,CLR,SKC,0.00,WeatherDisplay:10.37,2013-02-07 03:30:00,
2013-02-06 20:35:00,54.3,33.4,32.00,East,90,15.0,15.0,45,0.00,CLR,SKC,0.00,WeatherDisplay:10.37,2013-02-07 03:35:00,
2013-02-06 20:40:00,54.1,33.2,32.00,ENE,68,15.0,15.0,45,0.00,CLR,SKC,0.00,WeatherDisplay:10.37,2013-02-07 03:40:00,
2013-02-06 20:45:00,53.8,32.9,31.89,East,90,12.7,12.7,45,0.00,CLR,SKC,0.00,WeatherDisplay:10.37,2013-02-07 03:45:00,
2013-02-06 20:50:00,53.8,33.5,32.00,ENE,68,11.5,11.5,46,0.00,CLR,SKC,0.00,WeatherDisplay:10.37,2013-02-07 03:50:00,
2013-02-06 20:55:00,53.8,33.5,32.00,ENE,68,13.8,13.8,46,0.00,CLR,SKC,0.00,WeatherDisplay:10.37,2013-02-07 03:55:00,
2013-02-06 21:00:00,53.4,33.1,32.00,ENE,68,13.8,13.8,46,0.00,CLR,SKC,0.00,WeatherDisplay:10.37,2013-02-07 04:00:00,
2013-02-06 21:05:00,53.4,33.1,32.00,ENE,68,13.8,13.8,46,0.00,CLR,SKC,0.00,WeatherDisplay:10.37,2013-02-07 04:05:00,
2013-02-06 21:10:00,53.2,33.0,32.00,ENE,68,10.4,10.4,46,0.00,CLR,SKC,0.00,WeatherDisplay:10.37,2013-02-07 04:10:00,
2013-02-06 21:15:00,53.2,33.5,32.01,East,90,15.0,15.0,47,0.00,CLR,SKC,0.00,WeatherDisplay:10.37,2013-02-07 04:15:00,
2013-02-06 21:20:00,53.2,33.5,31.89,East,90,15.0,15.0,47,0.00,CLR,SKC,0.00,WeatherDisplay:10.37,2013-02-07 04:20:00,
2013-02-06 21:25:00,53.2,33.5,32.00,ENE,68,14.5,14.5,47,0.00,CLR,SKC,0.00,WeatherDisplay:10.37,2013-02-07 04:25:00,
2013-02-06 21:30:00,53.2,33.5,32.00,East,90,12.7,12.7,47,0.00,CLR,SKC,0.00,WeatherDisplay:10.37,2013-02-07 04:30:00,
2013-02-06 21:35:00,52.9,33.2,32.01,ENE,68,14.5,14.5,47,0.00,CLR,SKC,0.00,WeatherDisplay:10.37,2013-02-07 04:35:00,
2013-02-06 21:40:00,52.9,33.2,31.89,ENE,68,16.1,16.1,47,0.00,CLR,SKC,0.00,WeatherDisplay:10.37,2013-02-07 04:40:00,
2013-02-06 21:45:00,52.9,33.2,32.01,SSE,158,0.0,0.0,47,0.00,CLR,SKC,0.00,WeatherDisplay:10.37,2013-02-07 04:45:00,
2013-02-06 21:50:00,52.5,32.3,32.02,SSE,158,0.0,0.0,46,0.00,CLR,SKC,0.00,WeatherDisplay:10.37,2013-02-07 04:50:00,
2013-02-06 21:55:00,52.2,32.0,32.02,SSE,158,0.0,0.1,46,0.00,CLR,SKC,0.00,WeatherDisplay:10.37,2013-02-07 04:55:00,
2013-02-06 22:00:00,51.9,32.3,31.89,South,169,0.0,7.0,47,0.00,CLR,SKC,0.00,WeatherDisplay:10.37,2013-02-07 05:00:00,
2013-02-06 22:01:00,51.8,32.2,32.02,South,180,0.0,0.0,47,0.00,CLR,SKC,0.00,WeatherDisplay:10.37,2013-02-07 05:01:00,
2013-02-06 22:06:00,51.6,32.0,32.02,South,180,0.0,0.0,47,0.00,CLR,SKC,0.00,WeatherDisplay:10.37,2013-02-07 05:06:00,
2013-02-06 22:11:00,51.6,32.0,32.02,South,180,0.0,0.0,47,0.00,CLR,SKC,0.00,WeatherDisplay:10.37,2013-02-07 05:11:00,
2013-02-06 22:16:00,51.4,31.9,32.03,South,180,0.0,0.0,47,0.00,CLR,SKC,0.00,WeatherDisplay:10.37,2013-02-07 05:16:00,
2013-02-06 22:21:00,51.1,32.1,31.89,ESE,112,4.6,4.6,48,0.00,CLR,SKC,0.00,WeatherDisplay:10.37,2013-02-07 05:21:00,
2013-02-06 22:26:00,51.1,32.1,32.03,SSE,158,9.4,9.4,48,0.00,CLR,SKC,0.00,WeatherDisplay:10.37,2013-02-07 05:26:00,
2013-02-06 22:31:00,51.3,32.2,31.89,SE,135,1.2,0.0,48,0.00,CLR,SKC,0.00,WeatherDisplay:10.37,2013-02-07 05:31:00,
2013-02-06 22:36:00,51.4,32.9,31.89,ESE,112,9.6,9.6,49,0.00,CLR,SKC,0.00,WeatherDisplay:10.37,2013-02-07 05:36:00,
2013-02-06 22:41:00,51.6,32.6,32.03,South,180,5.8,5.8,48,0.00,CLR,SKC,0.00,WeatherDisplay:10.37,2013-02-07 05:41:00,
2013-02-06 22:46:00,51.4,32.4,32.03,SE,135,8.1,8.1,48,0.00,CLR,SKC,0.00,WeatherDisplay:10.37,2013-02-07 05:46:00,
2013-02-06 22:51:00,51.3,32.7,32.03,ESE,112,11.5,11.5,49,0.00,CLR,SKC,0.00,WeatherDisplay:10.37,2013-02-07 05:51:00,
2013-02-06 22:56:00,51.1,32.6,31.89,SE,135,3.5,0.0,49,0.00,CLR,SKC,0.00,WeatherDisplay:10.37,2013-02-07 05:56:00,
2013-02-06 23:01:00,50.7,32.2,32.03,SE,135,0.0,0.0,49,0.00,CLR,SKC,0.00,WeatherDisplay:10.37,2013-02-07 06:01:00,
2013-02-06 23:06:00,50.4,31.9,32.03,ESE,112,9.2,9.2,49,0.00,CLR,SKC,0.00,WeatherDisplay:10.37,2013-02-07 06:06:00,
2013-02-06 23:11:00,50.2,32.2,32.03,ESE,112,8.1,8.1,50,0.00,CLR,SKC,0.00,WeatherDisplay:10.37,2013-02-07 06:11:00,
2013-02-06 23:16:00,49.8,31.4,31.89,ESE,112,0.0,0.0,49,0.00,CLR,SKC,0.00,WeatherDisplay:10.37,2013-02-07 06:16:00,
2013-02-06 23:21:00,49.6,31.7,32.03,SE,135,0.0,0.0,50,0.00,CLR,SKC,0.00,WeatherDisplay:10.37,2013-02-07 06:21:00,
2013-02-06 23:26:00,49.3,31.9,32.03,ENE,68,9.2,9.2,51,0.00,CLR,SKC,0.00,WeatherDisplay:10.37,2013-02-07 06:26:00,
2013-02-06 23:31:00,49.6,32.2,32.04,ESE,112,0.0,0.0,51,0.00,CLR,SKC,0.00,WeatherDisplay:10.37,2013-02-07 06:31:00,
2013-02-06 23:36:00,49.3,31.9,31.89,SE,135,0.0,0.0,51,0.00,CLR,SKC,0.00,WeatherDisplay:10.37,2013-02-07 06:36:00,
2013-02-06 23:41:00,49.1,31.2,32.04,SE,135,4.6,0.0,50,0.00,CLR,SKC,0.00,WeatherDisplay:10.37,2013-02-07 06:41:00,
2013-02-06 23:46:00,48.9,31.6,32.04,SE,135,0.0,0.0,51,0.00,CLR,SKC,0.00,WeatherDisplay:10.37,2013-02-07 06:46:00,
2013-02-06 23:51:00,48.6,31.2,32.04,SW,225,9.6,9.6,51,0.00,CLR,SKC,0.00,WeatherDisplay:10.37,2013-02-07 06:51:00,
2013-02-06 23:56:00,48.0,30.7,31.89,SW,225,0.0,0.0,51,0.00,CLR,SKC,0.00,WeatherDisplay:10.37,2013-02-07 06:56:00,